Ashland, New Hampshire
Current Conditions -  °F | °C
As of 3:15 AM on Tuesday 27 Jan 2015 (Local Time) from K1P1 Reporting Station
Overcast Overcast  
Wind Chill: 17°   Ceiling: 3300
Heat Index: 17°   Visibility: 10mi
Dew Point:   Wind: 0mph
Humidity: 51%   Direction: NA
Pressure: 29.85"   Gusts: NA
Location:  43.7°N, 71.63°W
Report Text: K1P1 270815Z AUTO 00000KT 10SM OVC033 M08/M17 A2985 RMK AO2 T10821168
Loading
Personal Weather Stations






























Interactive Weather Map New forecast layout! Learn more

10-Day Weather Forecast

Advertisements
Track Severe Weather on mobile